sensor_id;sensor_type;location;lat;lon;timestamp;temperature;humidity
43049;DHT22;28673;44.412;11.918;2023-07-28T00:02:09;22.10;97.40
43049;DHT22;28673;44.412;11.918;2023-07-28T00:04:36;22.10;97.50
43049;DHT22;28673;44.412;11.918;2023-07-28T00:07:02;22.00;97.50
43049;DHT22;28673;44.412;11.918;2023-07-28T00:09:28;22.00;97.60
43049;DHT22;28673;44.412;11.918;2023-07-28T00:11:56;21.90;97.60
43049;DHT22;28673;44.412;11.918;2023-07-28T00:14:22;21.80;97.70
43049;DHT22;28673;44.412;11.918;2023-07-28T00:16:51;21.80;97.80
43049;DHT22;28673;44.412;11.918;2023-07-28T00:19:17;21.80;97.90
43049;DHT22;28673;44.412;11.918;2023-07-28T00:21:43;21.70;97.90
43049;DHT22;28673;44.412;11.918;2023-07-28T00:24:09;21.70;98.00
43049;DHT22;28673;44.412;11.918;2023-07-28T00:26:35;21.70;98.00
43049;DHT22;28673;44.412;11.918;2023-07-28T00:29:01;21.70;98.00
43049;DHT22;28673;44.412;11.918;2023-07-28T00:31:27;21.60;98.00
43049;DHT22;28673;44.412;11.918;2023-07-28T00:33:52;21.60;98.10
43049;DHT22;28673;44.412;11.918;2023-07-28T00:36:18;21.50;98.10
43049;DHT22;28673;44.412;11.918;2023-07-28T00:38:44;21.50;98.20
43049;DHT22;28673;44.412;11.918;2023-07-28T00:41:10;21.40;98.20
43049;DHT22;28673;44.412;11.918;2023-07-28T00:43:36;21.40;98.30
43049;DHT22;28673;44.412;11.918;2023-07-28T00:46:02;21.30;98.40
43049;DHT22;28673;44.412;11.918;2023-07-28T00:48:27;21.40;98.40
43049;DHT22;28673;44.412;11.918;2023-07-28T00:50:53;21.30;98.40
43049;DHT22;28673;44.412;11.918;2023-07-28T00:53:20;21.30;98.40
43049;DHT22;28673;44.412;11.918;2023-07-28T00:55:47;21.30;98.50
43049;DHT22;28673;44.412;11.918;2023-07-28T00:58:13;21.20;98.50
43049;DHT22;28673;44.412;11.918;2023-07-28T01:00:39;21.20;98.50
43049;DHT22;28673;44.412;11.918;2023-07-28T01:03:06;21.20;98.50
43049;DHT22;28673;44.412;11.918;2023-07-28T01:10:59;21.00;98.80
43049;DHT22;28673;44.412;11.918;2023-07-28T01:13:25;21.00;98.70
43049;DHT22;28673;44.412;11.918;2023-07-28T01:15:51;21.00;98.80
43049;DHT22;28673;44.412;11.918;2023-07-28T01:18:17;21.00;98.80
43049;DHT22;28673;44.412;11.918;2023-07-28T01:20:44;21.00;98.80
43049;DHT22;28673;44.412;11.918;2023-07-28T01:23:19;20.90;98.70
43049;DHT22;28673;44.412;11.918;2023-07-28T01:26:10;20.90;98.80
43049;DHT22;28673;44.412;11.918;2023-07-28T01:28:39;20.80;99.00
43049;DHT22;28673;44.412;11.918;2023-07-28T01:31:06;20.80;98.90
43049;DHT22;28673;44.412;11.918;2023-07-28T01:33:33;20.70;98.90
43049;DHT22;28673;44.412;11.918;2023-07-28T01:35:59;20.70;99.00
43049;DHT22;28673;44.412;11.918;2023-07-28T01:38:29;20.60;99.10
43049;DHT22;28673;44.412;11.918;2023-07-28T01:40:55;20.60;99.20
43049;DHT22;28673;44.412;11.918;2023-07-28T01:43:21;20.60;99.20
43049;DHT22;28673;44.412;11.918;2023-07-28T01:45:47;20.60;99.20
43049;DHT22;28673;44.412;11.918;2023-07-28T01:48:13;20.60;99.20
43049;DHT22;28673;44.412;11.918;2023-07-28T01:50:39;20.50;99.20
43049;DHT22;28673;44.412;11.918;2023-07-28T01:53:05;20.50;99.20
43049;DHT22;28673;44.412;11.918;2023-07-28T01:55:31;20.50;99.30
43049;DHT22;28673;44.412;11.918;2023-07-28T01:57:59;20.50;99.30
43049;DHT22;28673;44.412;11.918;2023-07-28T02:00:26;20.40;99.30
43049;DHT22;28673;44.412;11.918;2023-07-28T02:02:52;20.40;99.30
43049;DHT22;28673;44.412;11.918;2023-07-28T02:05:19;20.30;99.40
43049;DHT22;28673;44.412;11.918;2023-07-28T02:07:45;20.30;99.50
43049;DHT22;28673;44.412;11.918;2023-07-28T02:10:12;20.30;99.60
43049;DHT22;28673;44.412;11.918;2023-07-28T02:12:38;20.30;99.60
43049;DHT22;28673;44.412;11.918;2023-07-28T02:15:08;20.30;99.50
43049;DHT22;28673;44.412;11.918;2023-07-28T02:17:34;20.30;99.50
43049;DHT22;28673;44.412;11.918;2023-07-28T02:20:00;20.20;99.50
43049;DHT22;28673;44.412;11.918;2023-07-28T02:22:29;20.20;99.50
43049;DHT22;28673;44.412;11.918;2023-07-28T02:24:55;20.20;99.50
43049;DHT22;28673;44.412;11.918;2023-07-28T02:27:21;20.20;99.60
43049;DHT22;28673;44.412;11.918;2023-07-28T02:29:47;20.20;99.60
43049;DHT22;28673;44.412;11.918;2023-07-28T02:32:13;20.10;99.60
43049;DHT22;28673;44.412;11.918;2023-07-28T02:34:39;20.10;99.80
43049;DHT22;28673;44.412;11.918;2023-07-28T02:37:05;20.10;99.80
43049;DHT22;28673;44.412;11.918;2023-07-28T02:39:31;20.10;99.80
43049;DHT22;28673;44.412;11.918;2023-07-28T02:41:57;20.10;99.90
43049;DHT22;28673;44.412;11.918;2023-07-28T02:44:23;20.10;99.90
43049;DHT22;28673;44.412;11.918;2023-07-28T02:46:48;20.10;99.80
43049;DHT22;28673;44.412;11.918;2023-07-28T02:49:14;20.10;99.90
43049;DHT22;28673;44.412;11.918;2023-07-28T02:51:40;20.10;99.80
43049;DHT22;28673;44.412;11.918;2023-07-28T02:54:07;20.00;99.80
43049;DHT22;28673;44.412;11.918;2023-07-28T02:56:33;20.00;99.70
43049;DHT22;28673;44.412;11.918;2023-07-28T02:59:04;20.00;99.70
43049;DHT22;28673;44.412;11.918;2023-07-28T03:01:31;19.90;99.60
43049;DHT22;28673;44.412;11.918;2023-07-28T03:04:02;19.90;99.60
43049;DHT22;28673;44.412;11.918;2023-07-28T03:06:30;19.80;99.60
43049;DHT22;28673;44.412;11.918;2023-07-28T03:08:58;19.90;99.60
43049;DHT22;28673;44.412;11.918;2023-07-28T03:11:47;19.90;99.60
43049;DHT22;28673;44.412;11.918;2023-07-28T03:14:13;19.80;99.50
43049;DHT22;28673;44.412;11.918;2023-07-28T03:16:40;19.80;99.50
43049;DHT22;28673;44.412;11.918;2023-07-28T03:19:06;19.80;99.50
43049;DHT22;28673;44.412;11.918;2023-07-28T03:21:31;19.80;99.50
43049;DHT22;28673;44.412;11.918;2023-07-28T03:23:57;19.70;99.50
43049;DHT22;28673;44.412;11.918;2023-07-28T03:26:24;19.70;99.50
43049;DHT22;28673;44.412;11.918;2023-07-28T03:28:49;19.60;99.50
43049;DHT22;28673;44.412;11.918;2023-07-28T03:31:15;19.60;99.60
43049;DHT22;28673;44.412;11.918;2023-07-28T03:33:41;19.50;99.70
43049;DHT22;28673;44.412;11.918;2023-07-28T03:36:07;19.50;99.70
43049;DHT22;28673;44.412;11.918;2023-07-28T03:38:34;19.50;99.80
43049;DHT22;28673;44.412;11.918;2023-07-28T03:41:00;19.50;99.80
43049;DHT22;28673;44.412;11.918;2023-07-28T03:43:26;19.50;99.80
43049;DHT22;28673;44.412;11.918;2023-07-28T03:45:52;19.50;99.80
43049;DHT22;28673;44.412;11.918;2023-07-28T03:48:19;19.50;99.90
43049;DHT22;28673;44.412;11.918;2023-07-28T03:50:45;19.40;99.90
43049;DHT22;28673;44.412;11.918;2023-07-28T03:53:11;19.50;99.90
43049;DHT22;28673;44.412;11.918;2023-07-28T03:55:37;19.40;99.90
43049;DHT22;28673;44.412;11.918;2023-07-28T03:58:03;19.40;99.90
43049;DHT22;28673;44.412;11.918;2023-07-28T04:00:30;19.40;99.90
43049;DHT22;28673;44.412;11.918;2023-07-28T04:02:56;19.40;99.90
43049;DHT22;28673;44.412;11.918;2023-07-28T04:05:22;19.40;99.90
43049;DHT22;28673;44.412;11.918;2023-07-28T04:07:48;19.50;99.90
43049;DHT22;28673;44.412;11.918;2023-07-28T04:10:15;19.50;99.90
43049;DHT22;28673;44.412;11.918;2023-07-28T04:12:41;19.50;99.90
43049;DHT22;28673;44.412;11.918;2023-07-28T04:15:07;19.50;99.90
43049;DHT22;28673;44.412;11.918;2023-07-28T04:17:33;19.50;99.90
43049;DHT22;28673;44.412;11.918;2023-07-28T04:19:59;19.50;99.90
43049;DHT22;28673;44.412;11.918;2023-07-28T04:22:27;19.50;99.90
43049;DHT22;28673;44.412;11.918;2023-07-28T04:24:54;19.50;99.90
43049;DHT22;28673;44.412;11.918;2023-07-28T04:27:20;19.40;99.90
43049;DHT22;28673;44.412;11.918;2023-07-28T04:29:47;19.40;99.90
43049;DHT22;28673;44.412;11.918;2023-07-28T04:32:18;19.40;99.90
43049;DHT22;28673;44.412;11.918;2023-07-28T04:34:44;19.40;99.90
43049;DHT22;28673;44.412;11.918;2023-07-28T04:37:15;19.50;99.90
43049;DHT22;28673;44.412;11.918;2023-07-28T04:39:52;19.50;99.80
43049;DHT22;28673;44.412;11.918;2023-07-28T04:42:19;19.40;99.80
43049;DHT22;28673;44.412;11.918;2023-07-28T04:44:46;19.40;99.80
43049;DHT22;28673;44.412;11.918;2023-07-28T04:47:12;19.50;99.80
43049;DHT22;28673;44.412;11.918;2023-07-28T04:49:38;19.40;99.80
43049;DHT22;28673;44.412;11.918;2023-07-28T04:52:07;19.40;99.90
43049;DHT22;28673;44.412;11.918;2023-07-28T04:54:37;19.40;99.90
43049;DHT22;28673;44.412;11.918;2023-07-28T04:57:03;19.50;99.90
43049;DHT22;28673;44.412;11.918;2023-07-28T04:59:32;19.50;99.90
43049;DHT22;28673;44.412;11.918;2023-07-28T05:01:58;19.50;99.90
43049;DHT22;28673;44.412;11.918;2023-07-28T05:04:24;19.60;99.90
43049;DHT22;28673;44.412;11.918;2023-07-28T05:06:50;19.60;99.90
43049;DHT22;28673;44.412;11.918;2023-07-28T05:09:16;19.70;99.90
43049;DHT22;28673;44.412;11.918;2023-07-28T05:11:42;19.80;99.80
43049;DHT22;28673;44.412;11.918;2023-07-28T05:14:08;19.80;99.70
43049;DHT22;28673;44.412;11.918;2023-07-28T05:16:35;19.80;99.70
43049;DHT22;28673;44.412;11.918;2023-07-28T05:19:09;19.80;99.70
43049;DHT22;28673;44.412;11.918;2023-07-28T05:21:54;19.80;99.70
43049;DHT22;28673;44.412;11.918;2023-07-28T05:24:26;19.80;99.50
43049;DHT22;28673;44.412;11.918;2023-07-28T05:26:52;19.80;99.50
43049;DHT22;28673;44.412;11.918;2023-07-28T05:29:18;19.90;99.50
43049;DHT22;28673;44.412;11.918;2023-07-28T05:31:46;19.90;99.40
43049;DHT22;28673;44.412;11.918;2023-07-28T05:34:29;19.90;99.30
43049;DHT22;28673;44.412;11.918;2023-07-28T05:36:55;20.00;99.30
43049;DHT22;28673;44.412;11.918;2023-07-28T05:39:24;20.00;99.10
43049;DHT22;28673;44.412;11.918;2023-07-28T05:41:50;20.10;99.10
43049;DHT22;28673;44.412;11.918;2023-07-28T05:44:16;20.10;99.00
43049;DHT22;28673;44.412;11.918;2023-07-28T05:46:42;20.10;98.90
43049;DHT22;28673;44.412;11.918;2023-07-28T05:49:08;20.10;98.90
43049;DHT22;28673;44.412;11.918;2023-07-28T05:51:34;20.10;98.90
43049;DHT22;28673;44.412;11.918;2023-07-28T05:54:00;20.10;98.80
43049;DHT22;28673;44.412;11.918;2023-07-28T05:56:26;20.20;98.80
43049;DHT22;28673;44.412;11.918;2023-07-28T05:58:52;20.20;98.80
43049;DHT22;28673;44.412;11.918;2023-07-28T06:01:18;20.30;98.70
43049;DHT22;28673;44.412;11.918;2023-07-28T06:04:04;20.30;98.60
43049;DHT22;28673;44.412;11.918;2023-07-28T06:06:37;20.50;98.60
43049;DHT22;28673;44.412;11.918;2023-07-28T06:09:03;20.60;98.50
43049;DHT22;28673;44.412;11.918;2023-07-28T06:11:29;20.70;98.40
43049;DHT22;28673;44.412;11.918;2023-07-28T06:13:55;20.90;98.20
43049;DHT22;28673;44.412;11.918;2023-07-28T06:16:23;21.00;98.00
43049;DHT22;28673;44.412;11.918;2023-07-28T06:18:50;21.20;97.70
43049;DHT22;28673;44.412;11.918;2023-07-28T06:21:20;21.40;97.50
43049;DHT22;28673;44.412;11.918;2023-07-28T06:23:45;21.70;97.20
43049;DHT22;28673;44.412;11.918;2023-07-28T06:26:11;21.90;96.80
43049;DHT22;28673;44.412;11.918;2023-07-28T06:28:39;22.10;96.50
43049;DHT22;28673;44.412;11.918;2023-07-28T06:31:06;22.20;96.10
43049;DHT22;28673;44.412;11.918;2023-07-28T06:33:32;22.40;96.00
43049;DHT22;28673;44.412;11.918;2023-07-28T06:35:58;22.60;95.70
43049;DHT22;28673;44.412;11.918;2023-07-28T06:38:24;22.70;95.30
43049;DHT22;28673;44.412;11.918;2023-07-28T06:40:50;22.90;95.20
43049;DHT22;28673;44.412;11.918;2023-07-28T06:43:17;23.00;94.90
43049;DHT22;28673;44.412;11.918;2023-07-28T06:45:46;23.10;94.40
43049;DHT22;28673;44.412;11.918;2023-07-28T06:48:12;23.30;94.30
43049;DHT22;28673;44.412;11.918;2023-07-28T06:50:38;23.40;94.00
43049;DHT22;28673;44.412;11.918;2023-07-28T06:53:04;23.70;94.00
43049;DHT22;28673;44.412;11.918;2023-07-28T06:55:31;23.90;93.60
43049;DHT22;28673;44.412;11.918;2023-07-28T06:57:57;24.20;93.10
43049;DHT22;28673;44.412;11.918;2023-07-28T07:00:24;24.50;92.50
43049;DHT22;28673;44.412;11.918;2023-07-28T07:02:50;24.80;92.20
43049;DHT22;28673;44.412;11.918;2023-07-28T07:05:16;25.00;91.80
43049;DHT22;28673;44.412;11.918;2023-07-28T07:07:42;25.20;91.60
43049;DHT22;28673;44.412;11.918;2023-07-28T07:10:08;25.40;91.20
43049;DHT22;28673;44.412;11.918;2023-07-28T07:12:35;25.50;91.50
43049;DHT22;28673;44.412;11.918;2023-07-28T07:15:01;25.60;90.90
43049;DHT22;28673;44.412;11.918;2023-07-28T07:17:27;25.70;90.80
43049;DHT22;28673;44.412;11.918;2023-07-28T07:19:53;25.80;90.70
43049;DHT22;28673;44.412;11.918;2023-07-28T07:22:19;25.90;90.50
43049;DHT22;28673;44.412;11.918;2023-07-28T07:24:45;26.00;90.40
43049;DHT22;28673;44.412;11.918;2023-07-28T07:27:11;26.00;90.10
43049;DHT22;28673;44.412;11.918;2023-07-28T07:29:39;26.10;90.00
43049;DHT22;28673;44.412;11.918;2023-07-28T07:32:06;26.20;89.70
43049;DHT22;28673;44.412;11.918;2023-07-28T07:34:33;26.30;89.20
43049;DHT22;28673;44.412;11.918;2023-07-28T07:36:59;26.30;89.00
43049;DHT22;28673;44.412;11.918;2023-07-28T07:39:25;26.30;88.70
43049;DHT22;28673;44.412;11.918;2023-07-28T07:41:51;26.40;88.50
43049;DHT22;28673;44.412;11.918;2023-07-28T07:44:17;26.40;88.50
43049;DHT22;28673;44.412;11.918;2023-07-28T07:46:43;26.50;88.30
43049;DHT22;28673;44.412;11.918;2023-07-28T07:49:09;26.60;88.30
43049;DHT22;28673;44.412;11.918;2023-07-28T07:51:35;26.60;88.40
43049;DHT22;28673;44.412;11.918;2023-07-28T07:54:00;26.70;88.10
43049;DHT22;28673;44.412;11.918;2023-07-28T07:56:29;26.80;88.10
43049;DHT22;28673;44.412;11.918;2023-07-28T07:58:55;27.00;87.90
43049;DHT22;28673;44.412;11.918;2023-07-28T08:01:21;27.20;87.60
43049;DHT22;28673;44.412;11.918;2023-07-28T08:03:47;27.20;87.00
43049;DHT22;28673;44.412;11.918;2023-07-28T08:06:13;27.30;86.90
43049;DHT22;28673;44.412;11.918;2023-07-28T08:08:39;27.30;86.80
43049;DHT22;28673;44.412;11.918;2023-07-28T08:11:05;27.30;86.80
43049;DHT22;28673;44.412;11.918;2023-07-28T08:13:33;27.30;86.80
43049;DHT22;28673;44.412;11.918;2023-07-28T08:15:59;27.30;86.50
43049;DHT22;28673;44.412;11.918;2023-07-28T08:18:24;27.40;86.70
43049;DHT22;28673;44.412;11.918;2023-07-28T08:20:50;27.50;86.50
43049;DHT22;28673;44.412;11.918;2023-07-28T08:23:16;27.50;86.40
43049;DHT22;28673;44.412;11.918;2023-07-28T08:25:42;27.60;86.20
43049;DHT22;28673;44.412;11.918;2023-07-28T08:28:08;27.80;86.10
43049;DHT22;28673;44.412;11.918;2023-07-28T08:30:34;28.00;86.30
43049;DHT22;28673;44.412;11.918;2023-07-28T08:33:00;28.30;85.40
43049;DHT22;28673;44.412;11.918;2023-07-28T08:35:27;28.60;85.20
43049;DHT22;28673;44.412;11.918;2023-07-28T08:37:53;28.80;84.50
43049;DHT22;28673;44.412;11.918;2023-07-28T08:40:19;28.90;83.80
43049;DHT22;28673;44.412;11.918;2023-07-28T08:42:45;29.00;83.60
43049;DHT22;28673;44.412;11.918;2023-07-28T08:45:11;29.10;83.50
43049;DHT22;28673;44.412;11.918;2023-07-28T08:47:37;29.20;83.70
43049;DHT22;28673;44.412;11.918;2023-07-28T08:50:04;29.20;83.30
43049;DHT22;28673;44.412;11.918;2023-07-28T08:52:31;29.20;82.60
43049;DHT22;28673;44.412;11.918;2023-07-28T08:54:58;29.20;82.70
43049;DHT22;28673;44.412;11.918;2023-07-28T08:57:23;29.20;82.60
43049;DHT22;28673;44.412;11.918;2023-07-28T08:59:49;29.10;82.50
43049;DHT22;28673;44.412;11.918;2023-07-28T09:02:19;29.20;82.50
43049;DHT22;28673;44.412;11.918;2023-07-28T09:04:48;29.20;82.20
43049;DHT22;28673;44.412;11.918;2023-07-28T09:07:15;29.20;82.50
43049;DHT22;28673;44.412;11.918;2023-07-28T09:09:41;29.20;82.30
43049;DHT22;28673;44.412;11.918;2023-07-28T09:12:08;29.30;82.30
43049;DHT22;28673;44.412;11.918;2023-07-28T09:14:37;29.50;82.40
43049;DHT22;28673;44.412;11.918;2023-07-28T09:17:11;29.60;82.20
43049;DHT22;28673;44.412;11.918;2023-07-28T09:19:52;29.70;81.90
43049;DHT22;28673;44.412;11.918;2023-07-28T09:22:18;29.80;80.80
43049;DHT22;28673;44.412;11.918;2023-07-28T09:24:45;29.90;81.30
43049;DHT22;28673;44.412;11.918;2023-07-28T09:27:25;29.90;81.30
43049;DHT22;28673;44.412;11.918;2023-07-28T09:29:53;29.90;80.90
43049;DHT22;28673;44.412;11.918;2023-07-28T09:32:40;30.00;81.10
43049;DHT22;28673;44.412;11.918;2023-07-28T09:35:13;30.00;80.60
43049;DHT22;28673;44.412;11.918;2023-07-28T09:37:41;30.10;81.00
43049;DHT22;28673;44.412;11.918;2023-07-28T09:40:09;30.20;80.70
43049;DHT22;28673;44.412;11.918;2023-07-28T09:42:39;30.40;80.70
43049;DHT22;28673;44.412;11.918;2023-07-28T09:45:06;30.50;80.10
43049;DHT22;28673;44.412;11.918;2023-07-28T09:47:34;30.60;80.10
43049;DHT22;28673;44.412;11.918;2023-07-28T09:50:08;30.60;80.00
43049;DHT22;28673;44.412;11.918;2023-07-28T09:52:37;30.60;79.50
43049;DHT22;28673;44.412;11.918;2023-07-28T09:55:07;30.60;79.60
43049;DHT22;28673;44.412;11.918;2023-07-28T09:57:41;30.70;79.70
43049;DHT22;28673;44.412;11.918;2023-07-28T10:00:08;30.70;79.40
43049;DHT22;28673;44.412;11.918;2023-07-28T10:02:38;30.80;79.20
43049;DHT22;28673;44.412;11.918;2023-07-28T10:05:06;30.90;78.90
43049;DHT22;28673;44.412;11.918;2023-07-28T10:07:37;31.00;78.80
43049;DHT22;28673;44.412;11.918;2023-07-28T10:10:05;31.10;78.00
43049;DHT22;28673;44.412;11.918;2023-07-28T10:12:53;31.20;77.80
43049;DHT22;28673;44.412;11.918;2023-07-28T10:15:31;31.30;77.50
43049;DHT22;28673;44.412;11.918;2023-07-28T10:18:00;31.30;77.90
43049;DHT22;28673;44.412;11.918;2023-07-28T10:20:36;31.50;77.90
43049;DHT22;28673;44.412;11.918;2023-07-28T10:25:40;31.70;77.50
43049;DHT22;28673;44.412;11.918;2023-07-28T10:28:07;31.90;77.20
43049;DHT22;28673;44.412;11.918;2023-07-28T10:30:54;32.00;76.50
43049;DHT22;28673;44.412;11.918;2023-07-28T10:33:35;32.30;76.20
43049;DHT22;28673;44.412;11.918;2023-07-28T10:36:16;32.70;75.50
43049;DHT22;28673;44.412;11.918;2023-07-28T10:38:42;33.10;76.10
43049;DHT22;28673;44.412;11.918;2023-07-28T10:41:13;33.40;75.60
43049;DHT22;28673;44.412;11.918;2023-07-28T10:43:40;33.90;75.00
43049;DHT22;28673;44.412;11.918;2023-07-28T10:46:11;34.30;73.50
43049;DHT22;28673;44.412;11.918;2023-07-28T10:48:46;34.70;72.30
43049;DHT22;28673;44.412;11.918;2023-07-28T10:51:26;35.10;68.90
43049;DHT22;28673;44.412;11.918;2023-07-28T10:53:56;35.40;69.80
43049;DHT22;28673;44.412;11.918;2023-07-28T10:56:21;35.80;68.70
43049;DHT22;28673;44.412;11.918;2023-07-28T10:58:59;35.90;68.60
43049;DHT22;28673;44.412;11.918;2023-07-28T11:01:31;36.10;66.40
43049;DHT22;28673;44.412;11.918;2023-07-28T11:04:17;36.20;67.10
43049;DHT22;28673;44.412;11.918;2023-07-28T11:06:45;36.50;65.20
43049;DHT22;28673;44.412;11.918;2023-07-28T11:09:13;36.80;66.30
43049;DHT22;28673;44.412;11.918;2023-07-28T11:11:41;37.00;64.40
43049;DHT22;28673;44.412;11.918;2023-07-28T11:14:08;37.10;64.50
43049;DHT22;28673;44.412;11.918;2023-07-28T11:16:36;37.30;64.30
43049;DHT22;28673;44.412;11.918;2023-07-28T11:19:03;37.60;64.10
43049;DHT22;28673;44.412;11.918;2023-07-28T11:21:29;37.90;63.00
43049;DHT22;28673;44.412;11.918;2023-07-28T11:23:56;38.10;62.30
43049;DHT22;28673;44.412;11.918;2023-07-28T11:26:22;38.40;61.80
43049;DHT22;28673;44.412;11.918;2023-07-28T11:28:48;38.70;61.70
43049;DHT22;28673;44.412;11.918;2023-07-28T11:31:14;38.80;60.80
43049;DHT22;28673;44.412;11.918;2023-07-28T11:33:40;39.00;60.90
43049;DHT22;28673;44.412;11.918;2023-07-28T11:36:06;39.20;60.20
43049;DHT22;28673;44.412;11.918;2023-07-28T11:38:33;39.40;59.80
43049;DHT22;28673;44.412;11.918;2023-07-28T11:41:02;39.50;58.90
43049;DHT22;28673;44.412;11.918;2023-07-28T11:43:28;39.70;58.60
43049;DHT22;28673;44.412;11.918;2023-07-28T11:45:54;39.80;58.10
43049;DHT22;28673;44.412;11.918;2023-07-28T11:48:20;39.90;57.50
43049;DHT22;28673;44.412;11.918;2023-07-28T11:50:46;40.00;57.20
43049;DHT22;28673;44.412;11.918;2023-07-28T11:53:13;40.20;57.40
43049;DHT22;28673;44.412;11.918;2023-07-28T11:55:39;40.20;56.40
43049;DHT22;28673;44.412;11.918;2023-07-28T11:58:06;40.40;56.20
43049;DHT22;28673;44.412;11.918;2023-07-28T12:00:34;40.60;56.30
43049;DHT22;28673;44.412;11.918;2023-07-28T12:03:08;40.80;56.00
43049;DHT22;28673;44.412;11.918;2023-07-28T12:05:41;40.80;55.50
43049;DHT22;28673;44.412;11.918;2023-07-28T12:08:39;40.90;55.80
43049;DHT22;28673;44.412;11.918;2023-07-28T12:11:05;40.80;53.40
43049;DHT22;28673;44.412;11.918;2023-07-28T12:13:48;40.90;55.50
43049;DHT22;28673;44.412;11.918;2023-07-28T12:16:53;40.90;54.90
43049;DHT22;28673;44.412;11.918;2023-07-28T12:19:21;41.10;55.10
43049;DHT22;28673;44.412;11.918;2023-07-28T12:21:50;41.10;55.00
43049;DHT22;28673;44.412;11.918;2023-07-28T12:24:16;41.30;55.20
43049;DHT22;28673;44.412;11.918;2023-07-28T12:26:41;41.30;55.00
43049;DHT22;28673;44.412;11.918;2023-07-28T12:29:07;41.40;55.10
43049;DHT22;28673;44.412;11.918;2023-07-28T12:31:37;41.50;54.90
43049;DHT22;28673;44.412;11.918;2023-07-28T12:34:03;41.50;53.30
43049;DHT22;28673;44.412;11.918;2023-07-28T12:36:29;41.50;55.20
43049;DHT22;28673;44.412;11.918;2023-07-28T12:38:55;41.60;54.70
43049;DHT22;28673;44.412;11.918;2023-07-28T12:41:21;41.70;54.10
43049;DHT22;28673;44.412;11.918;2023-07-28T12:43:47;41.70;54.50
43049;DHT22;28673;44.412;11.918;2023-07-28T12:46:15;41.60;54.60
43049;DHT22;28673;44.412;11.918;2023-07-28T12:48:42;41.70;54.10
43049;DHT22;28673;44.412;11.918;2023-07-28T12:51:08;41.70;54.20
43049;DHT22;28673;44.412;11.918;2023-07-28T12:53:34;41.70;53.90
43049;DHT22;28673;44.412;11.918;2023-07-28T12:56:00;41.90;53.90
43049;DHT22;28673;44.412;11.918;2023-07-28T12:58:26;41.90;53.50
43049;DHT22;28673;44.412;11.918;2023-07-28T13:00:52;42.00;53.60
43049;DHT22;28673;44.412;11.918;2023-07-28T13:03:18;41.70;53.00
43049;DHT22;28673;44.412;11.918;2023-07-28T13:05:44;41.70;54.00
43049;DHT22;28673;44.412;11.918;2023-07-28T13:08:12;41.60;53.60
43049;DHT22;28673;44.412;11.918;2023-07-28T13:10:38;41.70;53.80
43049;DHT22;28673;44.412;11.918;2023-07-28T13:13:04;41.80;53.80
43049;DHT22;28673;44.412;11.918;2023-07-28T13:15:30;41.90;54.00
43049;DHT22;28673;44.412;11.918;2023-07-28T13:17:56;42.00;53.70
43049;DHT22;28673;44.412;11.918;2023-07-28T13:20:22;42.00;53.40
43049;DHT22;28673;44.412;11.918;2023-07-28T13:22:48;42.00;53.20
43049;DHT22;28673;44.412;11.918;2023-07-28T13:25:14;42.20;53.40
43049;DHT22;28673;44.412;11.918;2023-07-28T13:27:39;42.20;53.80
43049;DHT22;28673;44.412;11.918;2023-07-28T13:30:06;42.30;53.70
43049;DHT22;28673;44.412;11.918;2023-07-28T13:32:32;42.40;53.80
43049;DHT22;28673;44.412;11.918;2023-07-28T13:34:58;42.30;52.70
43049;DHT22;28673;44.412;11.918;2023-07-28T13:37:25;42.00;52.90
43049;DHT22;28673;44.412;11.918;2023-07-28T13:39:51;41.90;53.10
43049;DHT22;28673;44.412;11.918;2023-07-28T13:42:20;41.80;52.70
43049;DHT22;28673;44.412;11.918;2023-07-28T13:44:46;41.80;53.20
43049;DHT22;28673;44.412;11.918;2023-07-28T13:47:13;41.70;53.20
43049;DHT22;28673;44.412;11.918;2023-07-28T13:49:39;41.80;53.00
43049;DHT22;28673;44.412;11.918;2023-07-28T13:52:06;41.80;53.50
43049;DHT22;28673;44.412;11.918;2023-07-28T13:54:32;41.70;53.60
43049;DHT22;28673;44.412;11.918;2023-07-28T13:56:58;41.70;53.00
43049;DHT22;28673;44.412;11.918;2023-07-28T13:59:26;41.80;53.40
43049;DHT22;28673;44.412;11.918;2023-07-28T14:01:52;41.70;53.00
43049;DHT22;28673;44.412;11.918;2023-07-28T14:04:18;41.70;53.20
43049;DHT22;28673;44.412;11.918;2023-07-28T14:06:46;41.60;53.10
43049;DHT22;28673;44.412;11.918;2023-07-28T14:09:15;41.60;53.40
43049;DHT22;28673;44.412;11.918;2023-07-28T14:11:44;41.70;53.10
43049;DHT22;28673;44.412;11.918;2023-07-28T14:14:11;41.70;53.10
43049;DHT22;28673;44.412;11.918;2023-07-28T14:16:37;41.80;53.00
43049;DHT22;28673;44.412;11.918;2023-07-28T14:19:03;41.80;53.50
43049;DHT22;28673;44.412;11.918;2023-07-28T14:21:30;41.80;53.20
43049;DHT22;28673;44.412;11.918;2023-07-28T14:23:57;41.90;53.80
43049;DHT22;28673;44.412;11.918;2023-07-28T14:26:23;41.90;53.40
43049;DHT22;28673;44.412;11.918;2023-07-28T14:28:50;42.00;53.60
43049;DHT22;28673;44.412;11.918;2023-07-28T14:31:16;42.00;53.60
43049;DHT22;28673;44.412;11.918;2023-07-28T14:33:43;42.00;53.60
43049;DHT22;28673;44.412;11.918;2023-07-28T14:36:09;41.90;53.40
43049;DHT22;28673;44.412;11.918;2023-07-28T14:38:35;41.90;53.30
43049;DHT22;28673;44.412;11.918;2023-07-28T14:41:00;41.90;52.90
43049;DHT22;28673;44.412;11.918;2023-07-28T14:43:26;41.90;53.20
43049;DHT22;28673;44.412;11.918;2023-07-28T14:45:52;41.90;53.20
43049;DHT22;28673;44.412;11.918;2023-07-28T14:48:18;41.80;53.40
43049;DHT22;28673;44.412;11.918;2023-07-28T14:50:44;41.50;53.50
43049;DHT22;28673;44.412;11.918;2023-07-28T14:53:34;41.30;53.70
43049;DHT22;28673;44.412;11.918;2023-07-28T14:56:01;40.70;53.80
43049;DHT22;28673;44.412;11.918;2023-07-28T14:58:28;40.30;54.00
43049;DHT22;28673;44.412;11.918;2023-07-28T15:00:54;40.00;55.00
43049;DHT22;28673;44.412;11.918;2023-07-28T15:03:20;39.70;55.10
43049;DHT22;28673;44.412;11.918;2023-07-28T15:05:46;39.50;55.70
43049;DHT22;28673;44.412;11.918;2023-07-28T15:08:13;39.40;55.60
43049;DHT22;28673;44.412;11.918;2023-07-28T15:10:41;39.40;55.60
43049;DHT22;28673;44.412;11.918;2023-07-28T15:13:07;39.30;55.30
43049;DHT22;28673;44.412;11.918;2023-07-28T15:15:33;39.30;55.20
43049;DHT22;28673;44.412;11.918;2023-07-28T15:17:58;39.20;55.60
43049;DHT22;28673;44.412;11.918;2023-07-28T15:20:24;38.90;55.50
43049;DHT22;28673;44.412;11.918;2023-07-28T15:22:50;38.90;55.70
43049;DHT22;28673;44.412;11.918;2023-07-28T15:25:16;39.00;55.90
43049;DHT22;28673;44.412;11.918;2023-07-28T15:27:42;38.90;55.80